Impacts TAF Board
For situational awareness. Not to be used for flight planning purposes.
IDs:

KTYR - Tyler/Pounds Fld, TX, US

Issued at 0540 UTC 18 Sep 2021
Updated at 0631 UTC 18 Sep 2021
Potential Impact None Slight Moderate High
Time0553Z 18/07Z 18/08Z 18/09Z 18/10Z 18/11Z 18/12Z 18/13Z 18/14Z 18/15Z 18/16Z 18/17Z 18/18Z 18/19Z>>
Type OBS PRVL PRVL PRVL PRVL PRVL PRVL PRVL PRVL PRVL PRVL PRVL PRVL PRVL
VIS 10 >6 >6 >6 >6 >6 >6 >6 >6 >6 >6 >6 >6 >6
CIG -- 80 80 80 80 80 -- -- 15 15 25 25 35 35
Cover CLR OVC OVC OVC OVC OVC SCT SCT BKN BKN BKN BKN BKN BKN
FltCat VFR VFR VFR VFR VFR VFR VFR VFR MVFR MVFR MVFR MVFR VFR VFR
WX -- -- -- -- -- -- -- -- -- -- -- -- -- --
WDir VRB VRB VRB VRB VRB VRB 30 30 30 30 30 30 30 30
WSpd 0 0 0 0 0 0 4 4 5 5 6 6 6 6
WGst -- -- -- -- -- -- -- -- -- -- -- -- -- --
Raw TAF
KTYR 180540Z 1806/1906 00000KT P6SM OVC080
  FM181200 03004KT P6SM SCT020
  FM181400 03005KT P6SM BKN015
  FM181600 03006KT P6SM BKN025
  FM181800 03006KT P6SM BKN035
  FM190000 06005KT P6SM VCTS BKN040CB OVC100


Raw METAR
KTYR 180553Z AUTO 00000KT 10SM CLR 24/22 A3001 RMK AO2 SLP153 T02440217 10300 20239 403280211 55000
KTYR 180453Z AUTO 00000KT 10SM OVC080 25/22 A3000 RMK AO2 SLP152 T02500217
KTYR 180353Z AUTO 00000KT 10SM BKN070 26/22 A3001 RMK AO2 SLP155 T02560217

METAR Board
Radar Display
Forecast Discussion
For situational awareness. Not to be used for flight planning purposes.